Enunciados de questões e informações de concursos

Polícia Civil do Estado do Rio de Janeiro
Questão 1 de 1
Assunto: Sem classificação
Analise o METAR a seguir.

METAR SBRJ 060800Z 07015KT 0150 FG OVC003 17/17 Q1013

De acordo com o METAR acima descrito, é correto afirmar que:


spinner
Ocorreu um erro na requisição, tente executar a operação novamente.